sensor_id;sensor_type;location;lat;lon;timestamp;P1;durP1;ratioP1;P2;durP2;ratioP2
26774;SDS011;14362;51.902;7.626;2022-12-07T00:03:04;37.43;;;25.93;;
26774;SDS011;14362;51.902;7.626;2022-12-07T00:07:05;37.63;;;26.85;;
26774;SDS011;14362;51.902;7.626;2022-12-07T00:11:07;35.85;;;25.83;;
26774;SDS011;14362;51.902;7.626;2022-12-07T00:15:11;30.63;;;24.23;;
26774;SDS011;14362;51.902;7.626;2022-12-07T00:19:13;35.97;;;24.85;;
26774;SDS011;14362;51.902;7.626;2022-12-07T00:23:15;36.60;;;24.73;;
26774;SDS011;14362;51.902;7.626;2022-12-07T00:27:16;31.63;;;23.10;;
26774;SDS011;14362;51.902;7.626;2022-12-07T00:31:20;30.50;;;21.35;;
26774;SDS011;14362;51.902;7.626;2022-12-07T00:35:23;27.40;;;20.42;;
26774;SDS011;14362;51.902;7.626;2022-12-07T00:39:25;25.80;;;20.13;;
26774;SDS011;14362;51.902;7.626;2022-12-07T00:43:26;25.02;;;19.55;;
26774;SDS011;14362;51.902;7.626;2022-12-07T00:47:29;26.10;;;20.35;;
26774;SDS011;14362;51.902;7.626;2022-12-07T00:51:31;25.13;;;19.75;;
26774;SDS011;14362;51.902;7.626;2022-12-07T00:55:32;22.77;;;18.42;;
26774;SDS011;14362;51.902;7.626;2022-12-07T00:59:34;24.60;;;18.67;;
26774;SDS011;14362;51.902;7.626;2022-12-07T01:03:36;25.48;;;19.13;;
26774;SDS011;14362;51.902;7.626;2022-12-07T01:07:38;24.80;;;18.25;;
26774;SDS011;14362;51.902;7.626;2022-12-07T01:11:39;24.95;;;19.17;;
26774;SDS011;14362;51.902;7.626;2022-12-07T01:15:41;25.65;;;19.55;;
26774;SDS011;14362;51.902;7.626;2022-12-07T01:19:46;25.00;;;18.80;;
26774;SDS011;14362;51.902;7.626;2022-12-07T01:23:48;26.42;;;20.65;;
26774;SDS011;14362;51.902;7.626;2022-12-07T01:27:49;22.70;;;17.45;;
26774;SDS011;14362;51.902;7.626;2022-12-07T01:31:51;25.17;;;17.48;;
26774;SDS011;14362;51.902;7.626;2022-12-07T01:35:53;22.17;;;16.80;;
26774;SDS011;14362;51.902;7.626;2022-12-07T01:39:55;20.15;;;15.95;;
26774;SDS011;14362;51.902;7.626;2022-12-07T01:44:10;19.98;;;16.10;;
26774;SDS011;14362;51.902;7.626;2022-12-07T01:48:15;28.13;;;16.90;;
26774;SDS011;14362;51.902;7.626;2022-12-07T01:52:23;24.13;;;15.90;;
26774;SDS011;14362;51.902;7.626;2022-12-07T02:00:28;30.90;;;16.92;;
26774;SDS011;14362;51.902;7.626;2022-12-07T02:04:30;25.38;;;17.42;;
26774;SDS011;14362;51.902;7.626;2022-12-07T02:08:33;20.98;;;16.63;;
26774;SDS011;14362;51.902;7.626;2022-12-07T02:12:35;24.65;;;17.15;;
26774;SDS011;14362;51.902;7.626;2022-12-07T02:16:38;22.80;;;16.65;;
26774;SDS011;14362;51.902;7.626;2022-12-07T02:20:49;24.92;;;17.75;;
26774;SDS011;14362;51.902;7.626;2022-12-07T02:25:04;22.73;;;16.35;;
26774;SDS011;14362;51.902;7.626;2022-12-07T02:29:18;28.17;;;17.92;;
26774;SDS011;14362;51.902;7.626;2022-12-07T02:33:24;29.10;;;18.10;;
26774;SDS011;14362;51.902;7.626;2022-12-07T02:37:32;27.42;;;18.17;;
26774;SDS011;14362;51.902;7.626;2022-12-07T02:41:40;28.02;;;19.23;;
26774;SDS011;14362;51.902;7.626;2022-12-07T02:45:46;26.25;;;17.73;;
26774;SDS011;14362;51.902;7.626;2022-12-07T02:49:51;30.50;;;19.00;;
26774;SDS011;14362;51.902;7.626;2022-12-07T02:53:53;27.33;;;17.77;;
26774;SDS011;14362;51.902;7.626;2022-12-07T02:57:59;27.02;;;17.55;;
26774;SDS011;14362;51.902;7.626;2022-12-07T03:02:17;29.45;;;18.25;;
26774;SDS011;14362;51.902;7.626;2022-12-07T03:06:26;27.05;;;19.10;;
26774;SDS011;14362;51.902;7.626;2022-12-07T03:10:34;28.00;;;19.50;;
26774;SDS011;14362;51.902;7.626;2022-12-07T03:14:41;31.60;;;18.33;;
26774;SDS011;14362;51.902;7.626;2022-12-07T03:18:53;31.13;;;18.33;;
26774;SDS011;14362;51.902;7.626;2022-12-07T03:22:57;31.65;;;18.48;;
26774;SDS011;14362;51.902;7.626;2022-12-07T03:27:01;32.70;;;19.55;;
26774;SDS011;14362;51.902;7.626;2022-12-07T03:35:15;31.35;;;18.00;;
26774;SDS011;14362;51.902;7.626;2022-12-07T03:39:22;25.95;;;17.10;;
26774;SDS011;14362;51.902;7.626;2022-12-07T03:43:27;34.08;;;18.02;;
26774;SDS011;14362;51.902;7.626;2022-12-07T03:47:31;29.80;;;19.02;;
26774;SDS011;14362;51.902;7.626;2022-12-07T03:51:39;27.60;;;17.90;;
26774;SDS011;14362;51.902;7.626;2022-12-07T03:55:45;30.15;;;18.40;;
26774;SDS011;14362;51.902;7.626;2022-12-07T03:59:49;29.83;;;16.87;;
26774;SDS011;14362;51.902;7.626;2022-12-07T04:03:52;27.85;;;17.90;;
26774;SDS011;14362;51.902;7.626;2022-12-07T04:07:54;30.70;;;18.73;;
26774;SDS011;14362;51.902;7.626;2022-12-07T04:11:56;28.50;;;17.67;;
26774;SDS011;14362;51.902;7.626;2022-12-07T04:15:57;30.88;;;18.38;;
26774;SDS011;14362;51.902;7.626;2022-12-07T04:19:59;37.65;;;18.77;;
26774;SDS011;14362;51.902;7.626;2022-12-07T04:24:02;26.88;;;17.27;;
26774;SDS011;14362;51.902;7.626;2022-12-07T04:28:03;29.20;;;18.27;;
26774;SDS011;14362;51.902;7.626;2022-12-07T04:32:05;29.88;;;16.55;;
26774;SDS011;14362;51.902;7.626;2022-12-07T04:36:07;26.58;;;15.18;;
26774;SDS011;14362;51.902;7.626;2022-12-07T04:40:10;27.73;;;16.95;;
26774;SDS011;14362;51.902;7.626;2022-12-07T04:44:14;27.27;;;16.65;;
26774;SDS011;14362;51.902;7.626;2022-12-07T04:48:16;25.85;;;15.80;;
26774;SDS011;14362;51.902;7.626;2022-12-07T04:52:17;25.30;;;15.55;;
26774;SDS011;14362;51.902;7.626;2022-12-07T04:56:20;27.10;;;15.68;;
26774;SDS011;14362;51.902;7.626;2022-12-07T05:00:22;25.95;;;15.48;;
26774;SDS011;14362;51.902;7.626;2022-12-07T05:04:23;26.02;;;13.90;;
26774;SDS011;14362;51.902;7.626;2022-12-07T05:08:25;26.42;;;13.43;;
26774;SDS011;14362;51.902;7.626;2022-12-07T05:12:27;23.85;;;14.43;;
26774;SDS011;14362;51.902;7.626;2022-12-07T05:16:29;21.13;;;13.40;;
26774;SDS011;14362;51.902;7.626;2022-12-07T05:20:30;21.23;;;12.68;;
26774;SDS011;14362;51.902;7.626;2022-12-07T05:24:32;22.27;;;13.45;;
26774;SDS011;14362;51.902;7.626;2022-12-07T05:28:35;22.13;;;12.50;;
26774;SDS011;14362;51.902;7.626;2022-12-07T05:32:36;16.42;;;11.43;;
26774;SDS011;14362;51.902;7.626;2022-12-07T05:36:37;20.92;;;10.82;;
26774;SDS011;14362;51.902;7.626;2022-12-07T05:40:39;20.55;;;11.20;;
26774;SDS011;14362;51.902;7.626;2022-12-07T05:44:42;18.38;;;11.05;;
26774;SDS011;14362;51.902;7.626;2022-12-07T05:48:45;17.77;;;9.15;;
26774;SDS011;14362;51.902;7.626;2022-12-07T05:52:46;16.83;;;9.93;;
26774;SDS011;14362;51.902;7.626;2022-12-07T05:56:47;16.33;;;9.80;;
26774;SDS011;14362;51.902;7.626;2022-12-07T06:00:50;20.83;;;11.13;;
26774;SDS011;14362;51.902;7.626;2022-12-07T06:04:52;21.75;;;10.82;;
26774;SDS011;14362;51.902;7.626;2022-12-07T06:08:53;15.15;;;8.95;;
26774;SDS011;14362;51.902;7.626;2022-12-07T06:12:54;16.92;;;7.88;;
26774;SDS011;14362;51.902;7.626;2022-12-07T06:16:57;12.20;;;8.10;;
26774;SDS011;14362;51.902;7.626;2022-12-07T06:20:59;13.20;;;8.10;;
26774;SDS011;14362;51.902;7.626;2022-12-07T06:25:00;16.92;;;8.88;;
26774;SDS011;14362;51.902;7.626;2022-12-07T06:29:02;14.25;;;7.70;;
26774;SDS011;14362;51.902;7.626;2022-12-07T06:33:04;12.45;;;7.72;;
26774;SDS011;14362;51.902;7.626;2022-12-07T06:37:06;14.70;;;8.18;;
26774;SDS011;14362;51.902;7.626;2022-12-07T06:41:07;17.65;;;7.72;;
26774;SDS011;14362;51.902;7.626;2022-12-07T06:45:09;15.95;;;7.70;;
26774;SDS011;14362;51.902;7.626;2022-12-07T06:49:12;13.75;;;8.18;;
26774;SDS011;14362;51.902;7.626;2022-12-07T06:53:14;14.48;;;8.48;;
26774;SDS011;14362;51.902;7.626;2022-12-07T06:57:15;18.02;;;9.02;;
26774;SDS011;14362;51.902;7.626;2022-12-07T07:01:17;19.70;;;9.45;;
26774;SDS011;14362;51.902;7.626;2022-12-07T07:05:20;17.30;;;8.95;;
26774;SDS011;14362;51.902;7.626;2022-12-07T07:09:22;19.55;;;9.63;;
26774;SDS011;14362;51.902;7.626;2022-12-07T07:13:23;17.77;;;9.32;;
26774;SDS011;14362;51.902;7.626;2022-12-07T07:17:25;20.75;;;10.18;;
26774;SDS011;14362;51.902;7.626;2022-12-07T07:21:27;14.40;;;9.07;;
26774;SDS011;14362;51.902;7.626;2022-12-07T07:25:29;23.42;;;9.85;;
26774;SDS011;14362;51.902;7.626;2022-12-07T07:29:30;19.85;;;9.82;;
26774;SDS011;14362;51.902;7.626;2022-12-07T07:33:32;18.27;;;10.13;;
26774;SDS011;14362;51.902;7.626;2022-12-07T07:37:34;15.65;;;9.10;;
26774;SDS011;14362;51.902;7.626;2022-12-07T07:41:36;18.35;;;9.27;;
26774;SDS011;14362;51.902;7.626;2022-12-07T07:45:37;18.65;;;8.73;;
26774;SDS011;14362;51.902;7.626;2022-12-07T07:49:38;16.17;;;7.72;;
26774;SDS011;14362;51.902;7.626;2022-12-07T07:53:41;17.33;;;8.55;;
26774;SDS011;14362;51.902;7.626;2022-12-07T07:57:43;14.35;;;8.05;;
26774;SDS011;14362;51.902;7.626;2022-12-07T08:01:44;18.67;;;8.20;;
26774;SDS011;14362;51.902;7.626;2022-12-07T08:05:45;17.70;;;7.80;;
26774;SDS011;14362;51.902;7.626;2022-12-07T08:09:48;12.77;;;7.10;;
26774;SDS011;14362;51.902;7.626;2022-12-07T08:13:49;18.20;;;7.45;;
26774;SDS011;14362;51.902;7.626;2022-12-07T08:17:51;13.95;;;7.65;;
26774;SDS011;14362;51.902;7.626;2022-12-07T08:21:52;18.08;;;8.43;;
26774;SDS011;14362;51.902;7.626;2022-12-07T08:26:00;12.98;;;7.28;;
26774;SDS011;14362;51.902;7.626;2022-12-07T08:30:02;17.40;;;7.93;;
26774;SDS011;14362;51.902;7.626;2022-12-07T08:34:04;21.60;;;9.13;;
26774;SDS011;14362;51.902;7.626;2022-12-07T08:38:05;15.05;;;7.75;;
26774;SDS011;14362;51.902;7.626;2022-12-07T08:42:08;16.70;;;8.25;;
26774;SDS011;14362;51.902;7.626;2022-12-07T08:46:10;14.73;;;8.25;;
26774;SDS011;14362;51.902;7.626;2022-12-07T08:50:18;15.75;;;8.05;;
26774;SDS011;14362;51.902;7.626;2022-12-07T08:54:20;15.20;;;7.95;;
26774;SDS011;14362;51.902;7.626;2022-12-07T08:58:24;12.07;;;7.32;;
26774;SDS011;14362;51.902;7.626;2022-12-07T09:02:25;18.58;;;9.02;;
26774;SDS011;14362;51.902;7.626;2022-12-07T09:06:27;16.98;;;7.25;;
26774;SDS011;14362;51.902;7.626;2022-12-07T09:10:29;13.50;;;7.05;;
26774;SDS011;14362;51.902;7.626;2022-12-07T09:14:32;13.32;;;6.75;;
26774;SDS011;14362;51.902;7.626;2022-12-07T09:18:34;12.02;;;6.47;;
26774;SDS011;14362;51.902;7.626;2022-12-07T09:22:35;15.07;;;6.95;;
26774;SDS011;14362;51.902;7.626;2022-12-07T09:26:37;11.95;;;5.72;;
26774;SDS011;14362;51.902;7.626;2022-12-07T09:30:45;11.25;;;6.40;;
26774;SDS011;14362;51.902;7.626;2022-12-07T09:34:47;13.80;;;5.93;;
26774;SDS011;14362;51.902;7.626;2022-12-07T09:38:49;12.73;;;6.35;;
26774;SDS011;14362;51.902;7.626;2022-12-07T09:42:52;12.73;;;6.47;;
26774;SDS011;14362;51.902;7.626;2022-12-07T09:46:57;12.90;;;6.30;;
26774;SDS011;14362;51.902;7.626;2022-12-07T09:51:00;17.80;;;7.05;;
26774;SDS011;14362;51.902;7.626;2022-12-07T09:55:03;19.17;;;7.30;;
26774;SDS011;14362;51.902;7.626;2022-12-07T09:59:12;18.98;;;7.10;;
26774;SDS011;14362;51.902;7.626;2022-12-07T10:03:19;13.38;;;7.05;;
26774;SDS011;14362;51.902;7.626;2022-12-07T10:07:20;12.95;;;6.57;;
26774;SDS011;14362;51.902;7.626;2022-12-07T10:11:22;19.90;;;6.90;;
26774;SDS011;14362;51.902;7.626;2022-12-07T10:15:23;11.23;;;6.22;;
26774;SDS011;14362;51.902;7.626;2022-12-07T10:19:42;12.65;;;6.28;;
26774;SDS011;14362;51.902;7.626;2022-12-07T10:23:58;11.48;;;6.82;;
26774;SDS011;14362;51.902;7.626;2022-12-07T10:28:02;12.07;;;6.03;;
26774;SDS011;14362;51.902;7.626;2022-12-07T10:32:24;9.93;;;6.28;;
26774;SDS011;14362;51.902;7.626;2022-12-07T10:36:35;9.63;;;5.95;;
26774;SDS011;14362;51.902;7.626;2022-12-07T10:40:38;11.63;;;5.75;;
26774;SDS011;14362;51.902;7.626;2022-12-07T10:44:39;15.00;;;6.28;;
26774;SDS011;14362;51.902;7.626;2022-12-07T10:48:44;12.38;;;6.70;;
26774;SDS011;14362;51.902;7.626;2022-12-07T10:53:07;13.25;;;6.68;;
26774;SDS011;14362;51.902;7.626;2022-12-07T10:57:27;11.07;;;5.30;;
26774;SDS011;14362;51.902;7.626;2022-12-07T11:01:41;11.70;;;5.53;;
26774;SDS011;14362;51.902;7.626;2022-12-07T11:05:52;11.70;;;5.03;;
26774;SDS011;14362;51.902;7.626;2022-12-07T11:10:04;12.48;;;5.18;;
26774;SDS011;14362;51.902;7.626;2022-12-07T11:14:15;7.50;;;4.32;;
26774;SDS011;14362;51.902;7.626;2022-12-07T11:18:26;11.10;;;4.07;;
26774;SDS011;14362;51.902;7.626;2022-12-07T11:22:34;4.57;;;3.28;;
26774;SDS011;14362;51.902;7.626;2022-12-07T11:26:46;8.55;;;4.10;;
26774;SDS011;14362;51.902;7.626;2022-12-07T11:31:00;10.27;;;3.63;;
26774;SDS011;14362;51.902;7.626;2022-12-07T11:35:14;7.60;;;4.43;;
26774;SDS011;14362;51.902;7.626;2022-12-07T11:39:25;9.40;;;4.03;;
26774;SDS011;14362;51.902;7.626;2022-12-07T11:43:32;9.02;;;3.63;;
26774;SDS011;14362;51.902;7.626;2022-12-07T11:51:43;11.68;;;3.55;;
26774;SDS011;14362;51.902;7.626;2022-12-07T11:55:50;9.52;;;3.40;;
26774;SDS011;14362;51.902;7.626;2022-12-07T11:59:59;8.88;;;3.92;;
26774;SDS011;14362;51.902;7.626;2022-12-07T12:04:05;6.95;;;4.32;;
26774;SDS011;14362;51.902;7.626;2022-12-07T12:08:15;7.07;;;3.47;;
26774;SDS011;14362;51.902;7.626;2022-12-07T12:12:24;9.25;;;3.35;;
26774;SDS011;14362;51.902;7.626;2022-12-07T12:16:50;11.80;;;3.17;;
26774;SDS011;14362;51.902;7.626;2022-12-07T12:21:00;7.53;;;3.10;;
26774;SDS011;14362;51.902;7.626;2022-12-07T12:25:05;15.60;;;3.88;;
26774;SDS011;14362;51.902;7.626;2022-12-07T12:29:18;5.63;;;3.28;;
26774;SDS011;14362;51.902;7.626;2022-12-07T12:33:26;11.23;;;3.25;;
26774;SDS011;14362;51.902;7.626;2022-12-07T12:37:39;6.32;;;2.80;;
26774;SDS011;14362;51.902;7.626;2022-12-07T12:41:58;9.25;;;3.55;;
26774;SDS011;14362;51.902;7.626;2022-12-07T12:50:47;6.45;;;2.53;;
26774;SDS011;14362;51.902;7.626;2022-12-07T12:54:57;6.45;;;2.35;;
26774;SDS011;14362;51.902;7.626;2022-12-07T12:59:22;4.55;;;2.45;;
26774;SDS011;14362;51.902;7.626;2022-12-07T13:03:26;9.27;;;2.90;;
26774;SDS011;14362;51.902;7.626;2022-12-07T13:12:02;6.70;;;2.50;;
26774;SDS011;14362;51.902;7.626;2022-12-07T13:20:46;12.13;;;3.33;;
26774;SDS011;14362;51.902;7.626;2022-12-07T13:24:55;6.53;;;2.58;;
26774;SDS011;14362;51.902;7.626;2022-12-07T13:29:04;4.60;;;2.72;;
26774;SDS011;14362;51.902;7.626;2022-12-07T13:33:11;7.22;;;2.72;;
26774;SDS011;14362;51.902;7.626;2022-12-07T13:37:14;8.48;;;2.72;;
26774;SDS011;14362;51.902;7.626;2022-12-07T13:41:25;4.15;;;2.20;;
26774;SDS011;14362;51.902;7.626;2022-12-07T13:45:28;7.95;;;3.22;;
26774;SDS011;14362;51.902;7.626;2022-12-07T13:49:49;6.63;;;2.22;;
26774;SDS011;14362;51.902;7.626;2022-12-07T13:53:53;5.68;;;2.28;;
26774;SDS011;14362;51.902;7.626;2022-12-07T13:57:57;4.55;;;1.90;;
26774;SDS011;14362;51.902;7.626;2022-12-07T14:01:58;5.63;;;2.30;;
26774;SDS011;14362;51.902;7.626;2022-12-07T14:06:05;6.75;;;2.50;;
26774;SDS011;14362;51.902;7.626;2022-12-07T14:10:22;10.25;;;3.03;;
26774;SDS011;14362;51.902;7.626;2022-12-07T14:14:27;10.50;;;2.17;;
26774;SDS011;14362;51.902;7.626;2022-12-07T14:18:37;6.13;;;2.20;;
26774;SDS011;14362;51.902;7.626;2022-12-07T14:22:39;5.88;;;2.05;;
26774;SDS011;14362;51.902;7.626;2022-12-07T14:26:41;7.53;;;2.35;;
26774;SDS011;14362;51.902;7.626;2022-12-07T14:30:44;9.93;;;1.98;;
26774;SDS011;14362;51.902;7.626;2022-12-07T14:34:58;5.93;;;2.05;;
26774;SDS011;14362;51.902;7.626;2022-12-07T14:39:01;7.05;;;2.45;;
26774;SDS011;14362;51.902;7.626;2022-12-07T14:43:04;13.15;;;2.22;;
26774;SDS011;14362;51.902;7.626;2022-12-07T14:47:11;7.32;;;3.10;;
26774;SDS011;14362;51.902;7.626;2022-12-07T14:51:13;7.25;;;2.58;;
26774;SDS011;14362;51.902;7.626;2022-12-07T14:55:15;8.02;;;2.13;;
26774;SDS011;14362;51.902;7.626;2022-12-07T14:59:21;4.90;;;1.50;;
26774;SDS011;14362;51.902;7.626;2022-12-07T15:03:24;7.47;;;1.40;;
26774;SDS011;14362;51.902;7.626;2022-12-07T15:07:25;5.22;;;1.30;;
26774;SDS011;14362;51.902;7.626;2022-12-07T15:11:27;6.00;;;1.45;;
26774;SDS011;14362;51.902;7.626;2022-12-07T15:15:28;4.47;;;1.48;;
26774;SDS011;14362;51.902;7.626;2022-12-07T15:19:31;8.05;;;1.60;;
26774;SDS011;14362;51.902;7.626;2022-12-07T15:23:33;7.15;;;1.40;;
26774;SDS011;14362;51.902;7.626;2022-12-07T15:27:34;7.63;;;2.30;;
26774;SDS011;14362;51.902;7.626;2022-12-07T15:31:35;5.00;;;1.80;;
26774;SDS011;14362;51.902;7.626;2022-12-07T15:35:39;9.20;;;1.88;;
26774;SDS011;14362;51.902;7.626;2022-12-07T15:39:41;7.97;;;2.58;;
26774;SDS011;14362;51.902;7.626;2022-12-07T15:43:42;6.55;;;2.50;;
26774;SDS011;14362;51.902;7.626;2022-12-07T15:48:02;5.97;;;2.95;;
26774;SDS011;14362;51.902;7.626;2022-12-07T15:52:05;8.45;;;2.90;;
26774;SDS011;14362;51.902;7.626;2022-12-07T15:56:07;11.63;;;3.13;;
26774;SDS011;14362;51.902;7.626;2022-12-07T16:00:09;9.88;;;3.08;;
26774;SDS011;14362;51.902;7.626;2022-12-07T16:04:12;11.63;;;3.45;;
26774;SDS011;14362;51.902;7.626;2022-12-07T16:08:15;10.35;;;4.05;;
26774;SDS011;14362;51.902;7.626;2022-12-07T16:12:17;11.43;;;4.90;;
26774;SDS011;14362;51.902;7.626;2022-12-07T16:16:18;14.73;;;3.80;;
26774;SDS011;14362;51.902;7.626;2022-12-07T16:20:21;12.95;;;3.88;;
26774;SDS011;14362;51.902;7.626;2022-12-07T16:24:24;5.88;;;4.00;;
26774;SDS011;14362;51.902;7.626;2022-12-07T16:28:26;12.88;;;4.45;;
26774;SDS011;14362;51.902;7.626;2022-12-07T16:32:29;6.93;;;3.63;;
26774;SDS011;14362;51.902;7.626;2022-12-07T16:36:30;10.43;;;4.05;;
26774;SDS011;14362;51.902;7.626;2022-12-07T16:40:33;8.73;;;3.63;;
26774;SDS011;14362;51.902;7.626;2022-12-07T16:44:34;10.38;;;4.07;;
26774;SDS011;14362;51.902;7.626;2022-12-07T16:48:36;13.73;;;4.47;;
26774;SDS011;14362;51.902;7.626;2022-12-07T16:52:39;10.25;;;3.60;;
26774;SDS011;14362;51.902;7.626;2022-12-07T16:56:41;7.90;;;3.33;;
26774;SDS011;14362;51.902;7.626;2022-12-07T17:00:43;10.27;;;3.70;;
26774;SDS011;14362;51.902;7.626;2022-12-07T17:04:45;6.63;;;3.78;;
26774;SDS011;14362;51.902;7.626;2022-12-07T17:08:47;17.88;;;4.30;;
26774;SDS011;14362;51.902;7.626;2022-12-07T17:12:50;8.30;;;4.03;;
26774;SDS011;14362;51.902;7.626;2022-12-07T17:16:52;9.38;;;3.95;;
26774;SDS011;14362;51.902;7.626;2022-12-07T17:20:53;11.98;;;4.85;;
26774;SDS011;14362;51.902;7.626;2022-12-07T17:24:55;8.30;;;4.18;;
26774;SDS011;14362;51.902;7.626;2022-12-07T17:28:58;9.23;;;4.60;;
26774;SDS011;14362;51.902;7.626;2022-12-07T17:33:00;11.30;;;5.15;;
26774;SDS011;14362;51.902;7.626;2022-12-07T17:37:01;11.52;;;5.68;;
26774;SDS011;14362;51.902;7.626;2022-12-07T17:41:08;7.47;;;5.05;;
26774;SDS011;14362;51.902;7.626;2022-12-07T17:45:12;10.55;;;5.28;;
26774;SDS011;14362;51.902;7.626;2022-12-07T17:49:14;13.82;;;5.78;;
26774;SDS011;14362;51.902;7.626;2022-12-07T17:53:15;11.90;;;5.63;;
26774;SDS011;14362;51.902;7.626;2022-12-07T17:57:17;10.75;;;5.90;;
26774;SDS011;14362;51.902;7.626;2022-12-07T18:01:20;11.25;;;5.68;;
26774;SDS011;14362;51.902;7.626;2022-12-07T18:05:21;11.25;;;6.15;;
26774;SDS011;14362;51.902;7.626;2022-12-07T18:09:23;11.23;;;6.75;;
26774;SDS011;14362;51.902;7.626;2022-12-07T18:13:24;11.25;;;6.30;;
26774;SDS011;14362;51.902;7.626;2022-12-07T18:17:39;11.55;;;6.57;;
26774;SDS011;14362;51.902;7.626;2022-12-07T18:21:41;9.05;;;6.35;;
26774;SDS011;14362;51.902;7.626;2022-12-07T18:25:45;10.15;;;6.22;;
26774;SDS011;14362;51.902;7.626;2022-12-07T18:29:47;13.00;;;5.97;;
26774;SDS011;14362;51.902;7.626;2022-12-07T18:33:50;10.95;;;6.65;;
26774;SDS011;14362;51.902;7.626;2022-12-07T18:37:55;9.23;;;6.57;;
26774;SDS011;14362;51.902;7.626;2022-12-07T18:41:56;7.75;;;5.28;;
26774;SDS011;14362;51.902;7.626;2022-12-07T18:45:57;7.47;;;5.70;;
26774;SDS011;14362;51.902;7.626;2022-12-07T18:50:00;8.32;;;5.30;;
26774;SDS011;14362;51.902;7.626;2022-12-07T18:54:02;10.13;;;6.13;;
26774;SDS011;14362;51.902;7.626;2022-12-07T18:58:03;8.55;;;5.95;;
26774;SDS011;14362;51.902;7.626;2022-12-07T19:02:06;13.80;;;6.30;;
26774;SDS011;14362;51.902;7.626;2022-12-07T19:06:11;10.23;;;6.53;;
26774;SDS011;14362;51.902;7.626;2022-12-07T19:10:13;13.75;;;7.28;;
26774;SDS011;14362;51.902;7.626;2022-12-07T19:14:15;11.23;;;7.05;;
26774;SDS011;14362;51.902;7.626;2022-12-07T19:18:19;16.07;;;8.33;;
26774;SDS011;14362;51.902;7.626;2022-12-07T19:22:22;13.00;;;8.23;;
26774;SDS011;14362;51.902;7.626;2022-12-07T19:26:23;13.75;;;8.77;;
26774;SDS011;14362;51.902;7.626;2022-12-07T19:30:24;11.60;;;8.55;;
26774;SDS011;14362;51.902;7.626;2022-12-07T19:34:26;15.23;;;9.02;;
26774;SDS011;14362;51.902;7.626;2022-12-07T19:38:30;17.52;;;9.52;;
26774;SDS011;14362;51.902;7.626;2022-12-07T19:42:32;10.48;;;8.15;;
26774;SDS011;14362;51.902;7.626;2022-12-07T19:46:34;12.00;;;8.70;;
26774;SDS011;14362;51.902;7.626;2022-12-07T19:50:36;14.30;;;8.90;;
26774;SDS011;14362;51.902;7.626;2022-12-07T19:54:39;12.25;;;8.23;;
26774;SDS011;14362;51.902;7.626;2022-12-07T19:58:40;11.23;;;8.77;;
26774;SDS011;14362;51.902;7.626;2022-12-07T20:02:42;13.25;;;8.32;;
26774;SDS011;14362;51.902;7.626;2022-12-07T20:06:44;14.18;;;8.40;;
26774;SDS011;14362;51.902;7.626;2022-12-07T20:10:47;13.48;;;8.05;;
26774;SDS011;14362;51.902;7.626;2022-12-07T20:14:49;11.00;;;7.97;;
26774;SDS011;14362;51.902;7.626;2022-12-07T20:18:51;12.73;;;8.57;;
26774;SDS011;14362;51.902;7.626;2022-12-07T20:22:53;16.73;;;8.25;;
26774;SDS011;14362;51.902;7.626;2022-12-07T20:26:56;13.02;;;8.75;;
26774;SDS011;14362;51.902;7.626;2022-12-07T20:30:57;10.68;;;7.43;;
26774;SDS011;14362;51.902;7.626;2022-12-07T20:34:58;11.23;;;7.47;;
26774;SDS011;14362;51.902;7.626;2022-12-07T20:39:00;11.02;;;7.97;;
26774;SDS011;14362;51.902;7.626;2022-12-07T20:43:03;10.85;;;7.25;;
26774;SDS011;14362;51.902;7.626;2022-12-07T20:47:05;12.30;;;7.68;;
26774;SDS011;14362;51.902;7.626;2022-12-07T20:51:07;10.48;;;8.05;;
26774;SDS011;14362;51.902;7.626;2022-12-07T20:55:09;10.43;;;7.57;;
26774;SDS011;14362;51.902;7.626;2022-12-07T20:59:12;12.10;;;7.53;;
26774;SDS011;14362;51.902;7.626;2022-12-07T21:03:15;13.55;;;7.30;;
26774;SDS011;14362;51.902;7.626;2022-12-07T21:07:17;12.77;;;8.57;;
26774;SDS011;14362;51.902;7.626;2022-12-07T21:11:19;15.23;;;8.07;;
26774;SDS011;14362;51.902;7.626;2022-12-07T21:15:23;14.32;;;7.85;;
26774;SDS011;14362;51.902;7.626;2022-12-07T21:19:24;13.88;;;8.52;;
26774;SDS011;14362;51.902;7.626;2022-12-07T21:23:25;14.85;;;8.63;;
26774;SDS011;14362;51.902;7.626;2022-12-07T21:27:27;12.40;;;9.02;;
26774;SDS011;14362;51.902;7.626;2022-12-07T21:31:30;13.95;;;9.65;;
26774;SDS011;14362;51.902;7.626;2022-12-07T21:35:31;13.75;;;10.07;;
26774;SDS011;14362;51.902;7.626;2022-12-07T21:39:32;14.80;;;10.02;;
26774;SDS011;14362;51.902;7.626;2022-12-07T21:43:34;15.80;;;10.63;;
26774;SDS011;14362;51.902;7.626;2022-12-07T21:47:37;16.70;;;11.60;;
26774;SDS011;14362;51.902;7.626;2022-12-07T21:51:38;18.63;;;10.80;;
26774;SDS011;14362;51.902;7.626;2022-12-07T21:55:42;16.38;;;10.60;;
26774;SDS011;14362;51.902;7.626;2022-12-07T21:59:44;22.63;;;11.88;;
26774;SDS011;14362;51.902;7.626;2022-12-07T22:03:47;16.38;;;12.25;;
26774;SDS011;14362;51.902;7.626;2022-12-07T22:07:49;18.98;;;12.85;;
26774;SDS011;14362;51.902;7.626;2022-12-07T22:11:50;22.45;;;14.00;;
26774;SDS011;14362;51.902;7.626;2022-12-07T22:15:52;21.65;;;13.30;;
26774;SDS011;14362;51.902;7.626;2022-12-07T22:19:54;19.35;;;12.65;;
26774;SDS011;14362;51.902;7.626;2022-12-07T22:23:56;22.55;;;14.63;;
26774;SDS011;14362;51.902;7.626;2022-12-07T22:27:58;18.52;;;13.38;;
26774;SDS011;14362;51.902;7.626;2022-12-07T22:31:59;20.13;;;13.85;;
26774;SDS011;14362;51.902;7.626;2022-12-07T22:36:02;19.92;;;14.18;;
26774;SDS011;14362;51.902;7.626;2022-12-07T22:40:05;22.33;;;14.60;;
26774;SDS011;14362;51.902;7.626;2022-12-07T22:44:07;19.92;;;13.70;;
26774;SDS011;14362;51.902;7.626;2022-12-07T22:48:10;24.15;;;15.18;;
26774;SDS011;14362;51.902;7.626;2022-12-07T22:52:13;19.35;;;14.05;;
26774;SDS011;14362;51.902;7.626;2022-12-07T22:56:15;21.92;;;14.23;;
26774;SDS011;14362;51.902;7.626;2022-12-07T23:00:16;20.92;;;14.68;;
26774;SDS011;14362;51.902;7.626;2022-12-07T23:04:18;24.25;;;14.00;;
26774;SDS011;14362;51.902;7.626;2022-12-07T23:08:21;22.63;;;14.40;;
26774;SDS011;14362;51.902;7.626;2022-12-07T23:12:22;20.42;;;14.88;;
26774;SDS011;14362;51.902;7.626;2022-12-07T23:16:42;20.42;;;13.80;;
26774;SDS011;14362;51.902;7.626;2022-12-07T23:20:43;22.67;;;14.50;;
26774;SDS011;14362;51.902;7.626;2022-12-07T23:24:46;25.58;;;15.40;;
26774;SDS011;14362;51.902;7.626;2022-12-07T23:28:47;21.05;;;16.13;;
26774;SDS011;14362;51.902;7.626;2022-12-07T23:32:49;22.25;;;15.82;;
26774;SDS011;14362;51.902;7.626;2022-12-07T23:36:50;26.13;;;15.82;;
26774;SDS011;14362;51.902;7.626;2022-12-07T23:40:53;24.15;;;15.32;;
26774;SDS011;14362;51.902;7.626;2022-12-07T23:44:54;23.77;;;16.70;;
26774;SDS011;14362;51.902;7.626;2022-12-07T23:48:56;27.10;;;16.67;;
26774;SDS011;14362;51.902;7.626;2022-12-07T23:53:00;22.55;;;15.30;;
26774;SDS011;14362;51.902;7.626;2022-12-07T23:57:02;25.23;;;16.67;;
